sensor_id;sensor_type;location;lat;lon;timestamp;P1;durP1;ratioP1;P2;durP2;ratioP2
23702;SDS011;12030;50.376;8.762;2022-08-25T00:01:16;3.85;;;2.00;;
23702;SDS011;12030;50.376;8.762;2022-08-25T00:04:03;3.13;;;2.00;;
23702;SDS011;12030;50.376;8.762;2022-08-25T00:06:31;3.30;;;1.90;;
23702;SDS011;12030;50.376;8.762;2022-08-25T00:08:56;2.57;;;1.93;;
23702;SDS011;12030;50.376;8.762;2022-08-25T00:11:24;3.97;;;2.07;;
23702;SDS011;12030;50.376;8.762;2022-08-25T00:13:55;6.65;;;1.90;;
23702;SDS011;12030;50.376;8.762;2022-08-25T00:16:24;4.53;;;2.10;;
23702;SDS011;12030;50.376;8.762;2022-08-25T00:18:53;4.53;;;2.30;;
23702;SDS011;12030;50.376;8.762;2022-08-25T00:21:22;4.03;;;2.03;;
23702;SDS011;12030;50.376;8.762;2022-08-25T00:23:48;7.38;;;2.17;;
23702;SDS011;12030;50.376;8.762;2022-08-25T00:26:14;4.32;;;2.30;;
23702;SDS011;12030;50.376;8.762;2022-08-25T00:28:41;4.70;;;2.00;;
23702;SDS011;12030;50.376;8.762;2022-08-25T00:31:09;3.67;;;2.20;;
23702;SDS011;12030;50.376;8.762;2022-08-25T00:33:42;4.30;;;2.45;;
23702;SDS011;12030;50.376;8.762;2022-08-25T00:36:08;4.18;;;2.10;;
23702;SDS011;12030;50.376;8.762;2022-08-25T00:38:36;3.45;;;2.25;;
23702;SDS011;12030;50.376;8.762;2022-08-25T00:41:05;4.27;;;2.20;;
23702;SDS011;12030;50.376;8.762;2022-08-25T00:46:07;3.63;;;2.10;;
23702;SDS011;12030;50.376;8.762;2022-08-25T00:48:33;4.03;;;2.20;;
23702;SDS011;12030;50.376;8.762;2022-08-25T00:50:59;2.95;;;1.95;;
23702;SDS011;12030;50.376;8.762;2022-08-25T00:53:27;3.83;;;2.00;;
23702;SDS011;12030;50.376;8.762;2022-08-25T00:55:53;3.73;;;2.20;;
23702;SDS011;12030;50.376;8.762;2022-08-25T00:58:21;4.68;;;2.15;;
23702;SDS011;12030;50.376;8.762;2022-08-25T01:00:52;2.65;;;1.80;;
23702;SDS011;12030;50.376;8.762;2022-08-25T01:03:20;3.92;;;2.00;;
23702;SDS011;12030;50.376;8.762;2022-08-25T01:05:47;3.47;;;1.90;;
23702;SDS011;12030;50.376;8.762;2022-08-25T01:08:14;1.90;;;1.70;;
23702;SDS011;12030;50.376;8.762;2022-08-25T01:10:42;2.83;;;1.70;;
23702;SDS011;12030;50.376;8.762;2022-08-25T01:13:13;2.33;;;1.40;;
23702;SDS011;12030;50.376;8.762;2022-08-25T01:15:53;3.43;;;1.70;;
23702;SDS011;12030;50.376;8.762;2022-08-25T01:18:20;3.90;;;1.60;;
23702;SDS011;12030;50.376;8.762;2022-08-25T01:20:54;3.13;;;1.67;;
23702;SDS011;12030;50.376;8.762;2022-08-25T01:23:21;5.60;;;2.07;;
23702;SDS011;12030;50.376;8.762;2022-08-25T01:25:50;3.30;;;2.10;;
23702;SDS011;12030;50.376;8.762;2022-08-25T01:28:24;3.00;;;1.80;;
23702;SDS011;12030;50.376;8.762;2022-08-25T01:30:50;3.00;;;2.30;;
23702;SDS011;12030;50.376;8.762;2022-08-25T01:33:16;4.37;;;2.33;;
23702;SDS011;12030;50.376;8.762;2022-08-25T01:35:42;2.77;;;2.03;;
23702;SDS011;12030;50.376;8.762;2022-08-25T01:38:08;2.67;;;1.83;;
23702;SDS011;12030;50.376;8.762;2022-08-25T01:40:35;3.30;;;2.00;;
23702;SDS011;12030;50.376;8.762;2022-08-25T01:43:15;4.23;;;2.03;;
23702;SDS011;12030;50.376;8.762;2022-08-25T01:45:50;3.70;;;2.03;;
23702;SDS011;12030;50.376;8.762;2022-08-25T01:48:16;4.10;;;1.90;;
23702;SDS011;12030;50.376;8.762;2022-08-25T01:50:43;3.73;;;2.00;;
23702;SDS011;12030;50.376;8.762;2022-08-25T01:53:21;3.23;;;2.27;;
23702;SDS011;12030;50.376;8.762;2022-08-25T01:55:50;3.57;;;2.17;;
23702;SDS011;12030;50.376;8.762;2022-08-25T01:58:22;2.70;;;1.80;;
23702;SDS011;12030;50.376;8.762;2022-08-25T02:00:51;2.03;;;1.83;;
23702;SDS011;12030;50.376;8.762;2022-08-25T02:03:20;3.00;;;2.20;;
23702;SDS011;12030;50.376;8.762;2022-08-25T02:05:45;3.03;;;2.20;;
23702;SDS011;12030;50.376;8.762;2022-08-25T02:08:11;2.50;;;2.30;;
23702;SDS011;12030;50.376;8.762;2022-08-25T02:10:38;3.63;;;2.27;;
23702;SDS011;12030;50.376;8.762;2022-08-25T02:13:04;2.93;;;2.00;;
23702;SDS011;12030;50.376;8.762;2022-08-25T02:15:31;2.70;;;2.50;;
23702;SDS011;12030;50.376;8.762;2022-08-25T02:17:57;4.17;;;2.60;;
23702;SDS011;12030;50.376;8.762;2022-08-25T02:20:23;10.43;;;2.43;;
23702;SDS011;12030;50.376;8.762;2022-08-25T02:22:50;5.70;;;2.27;;
23702;SDS011;12030;50.376;8.762;2022-08-25T02:25:16;2.20;;;2.00;;
23702;SDS011;12030;50.376;8.762;2022-08-25T02:27:42;5.97;;;2.20;;
23702;SDS011;12030;50.376;8.762;2022-08-25T02:30:08;2.23;;;2.03;;
23702;SDS011;12030;50.376;8.762;2022-08-25T02:32:34;3.40;;;2.33;;
23702;SDS011;12030;50.376;8.762;2022-08-25T02:35:00;3.00;;;2.17;;
23702;SDS011;12030;50.376;8.762;2022-08-25T02:37:25;3.93;;;2.23;;
23702;SDS011;12030;50.376;8.762;2022-08-25T02:39:51;5.50;;;2.30;;
23702;SDS011;12030;50.376;8.762;2022-08-25T02:42:16;4.07;;;2.80;;
23702;SDS011;12030;50.376;8.762;2022-08-25T02:44:42;2.53;;;2.27;;
23702;SDS011;12030;50.376;8.762;2022-08-25T02:47:08;2.70;;;2.50;;
23702;SDS011;12030;50.376;8.762;2022-08-25T02:49:33;3.53;;;2.67;;
23702;SDS011;12030;50.376;8.762;2022-08-25T02:51:59;4.90;;;2.63;;
23702;SDS011;12030;50.376;8.762;2022-08-25T02:54:25;5.97;;;2.37;;
23702;SDS011;12030;50.376;8.762;2022-08-25T02:56:51;4.67;;;2.57;;
23702;SDS011;12030;50.376;8.762;2022-08-25T02:59:17;2.80;;;2.40;;
23702;SDS011;12030;50.376;8.762;2022-08-25T03:01:43;3.07;;;2.30;;
23702;SDS011;12030;50.376;8.762;2022-08-25T03:04:09;2.57;;;2.37;;
23702;SDS011;12030;50.376;8.762;2022-08-25T03:06:34;4.30;;;2.30;;
23702;SDS011;12030;50.376;8.762;2022-08-25T03:09:00;5.73;;;2.23;;
23702;SDS011;12030;50.376;8.762;2022-08-25T03:11:25;3.53;;;2.30;;
23702;SDS011;12030;50.376;8.762;2022-08-25T03:13:51;3.37;;;2.53;;
23702;SDS011;12030;50.376;8.762;2022-08-25T03:16:18;3.73;;;2.50;;
23702;SDS011;12030;50.376;8.762;2022-08-25T03:18:44;3.40;;;2.43;;
23702;SDS011;12030;50.376;8.762;2022-08-25T03:21:10;4.07;;;3.10;;
23702;SDS011;12030;50.376;8.762;2022-08-25T03:23:37;3.77;;;2.57;;
23702;SDS011;12030;50.376;8.762;2022-08-25T03:26:04;5.47;;;2.67;;
23702;SDS011;12030;50.376;8.762;2022-08-25T03:28:48;4.40;;;2.67;;
23702;SDS011;12030;50.376;8.762;2022-08-25T03:31:14;3.10;;;2.30;;
23702;SDS011;12030;50.376;8.762;2022-08-25T03:33:39;4.50;;;2.50;;
23702;SDS011;12030;50.376;8.762;2022-08-25T03:36:05;2.70;;;2.50;;
23702;SDS011;12030;50.376;8.762;2022-08-25T03:38:32;3.43;;;2.60;;
23702;SDS011;12030;50.376;8.762;2022-08-25T03:40:58;3.87;;;2.80;;
23702;SDS011;12030;50.376;8.762;2022-08-25T03:43:23;4.17;;;2.77;;
23702;SDS011;12030;50.376;8.762;2022-08-25T03:45:49;2.67;;;2.43;;
23702;SDS011;12030;50.376;8.762;2022-08-25T03:48:15;3.17;;;2.60;;
23702;SDS011;12030;50.376;8.762;2022-08-25T03:50:46;2.93;;;2.33;;
23702;SDS011;12030;50.376;8.762;2022-08-25T03:53:13;3.67;;;2.80;;
23702;SDS011;12030;50.376;8.762;2022-08-25T03:55:39;4.50;;;3.03;;
23702;SDS011;12030;50.376;8.762;2022-08-25T03:58:05;2.83;;;2.30;;
23702;SDS011;12030;50.376;8.762;2022-08-25T04:00:30;4.50;;;2.67;;
23702;SDS011;12030;50.376;8.762;2022-08-25T04:02:56;4.03;;;2.83;;
23702;SDS011;12030;50.376;8.762;2022-08-25T04:05:21;4.83;;;2.70;;
23702;SDS011;12030;50.376;8.762;2022-08-25T04:07:47;4.23;;;2.60;;
23702;SDS011;12030;50.376;8.762;2022-08-25T04:10:12;4.50;;;3.40;;
23702;SDS011;12030;50.376;8.762;2022-08-25T04:12:38;5.60;;;3.00;;
23702;SDS011;12030;50.376;8.762;2022-08-25T04:15:04;4.43;;;3.10;;
23702;SDS011;12030;50.376;8.762;2022-08-25T04:17:31;4.10;;;3.13;;
23702;SDS011;12030;50.376;8.762;2022-08-25T04:19:57;7.33;;;2.97;;
23702;SDS011;12030;50.376;8.762;2022-08-25T04:22:23;5.33;;;3.00;;
23702;SDS011;12030;50.376;8.762;2022-08-25T04:24:49;6.83;;;3.10;;
23702;SDS011;12030;50.376;8.762;2022-08-25T04:27:15;5.53;;;3.07;;
23702;SDS011;12030;50.376;8.762;2022-08-25T04:29:40;5.97;;;3.10;;
23702;SDS011;12030;50.376;8.762;2022-08-25T04:32:06;8.50;;;3.20;;
23702;SDS011;12030;50.376;8.762;2022-08-25T04:34:32;5.03;;;3.07;;
23702;SDS011;12030;50.376;8.762;2022-08-25T04:36:59;3.10;;;2.80;;
23702;SDS011;12030;50.376;8.762;2022-08-25T04:39:26;3.40;;;2.93;;
23702;SDS011;12030;50.376;8.762;2022-08-25T04:41:52;5.03;;;3.60;;
23702;SDS011;12030;50.376;8.762;2022-08-25T04:44:17;7.93;;;3.43;;
23702;SDS011;12030;50.376;8.762;2022-08-25T04:46:43;6.07;;;3.67;;
23702;SDS011;12030;50.376;8.762;2022-08-25T04:49:09;6.63;;;3.60;;
23702;SDS011;12030;50.376;8.762;2022-08-25T04:51:38;5.30;;;3.17;;
23702;SDS011;12030;50.376;8.762;2022-08-25T04:54:06;4.27;;;3.27;;
23702;SDS011;12030;50.376;8.762;2022-08-25T04:56:34;3.33;;;2.93;;
23702;SDS011;12030;50.376;8.762;2022-08-25T04:59:04;4.57;;;3.03;;
23702;SDS011;12030;50.376;8.762;2022-08-25T05:01:38;4.97;;;3.23;;
23702;SDS011;12030;50.376;8.762;2022-08-25T05:04:06;4.83;;;3.20;;
23702;SDS011;12030;50.376;8.762;2022-08-25T05:06:34;3.73;;;3.30;;
23702;SDS011;12030;50.376;8.762;2022-08-25T05:09:00;4.33;;;3.40;;
23702;SDS011;12030;50.376;8.762;2022-08-25T05:11:27;5.67;;;3.70;;
23702;SDS011;12030;50.376;8.762;2022-08-25T05:13:54;5.07;;;3.50;;
23702;SDS011;12030;50.376;8.762;2022-08-25T05:16:21;7.23;;;3.83;;
23702;SDS011;12030;50.376;8.762;2022-08-25T05:18:47;5.00;;;3.10;;
23702;SDS011;12030;50.376;8.762;2022-08-25T05:21:14;8.73;;;3.63;;
23702;SDS011;12030;50.376;8.762;2022-08-25T05:23:42;4.37;;;3.57;;
23702;SDS011;12030;50.376;8.762;2022-08-25T05:26:09;10.50;;;5.00;;
23702;SDS011;12030;50.376;8.762;2022-08-25T05:28:37;6.10;;;3.70;;
23702;SDS011;12030;50.376;8.762;2022-08-25T05:31:05;5.40;;;3.53;;
23702;SDS011;12030;50.376;8.762;2022-08-25T05:33:32;8.23;;;3.63;;
23702;SDS011;12030;50.376;8.762;2022-08-25T05:35:58;8.47;;;3.30;;
23702;SDS011;12030;50.376;8.762;2022-08-25T05:38:24;4.00;;;3.47;;
23702;SDS011;12030;50.376;8.762;2022-08-25T05:40:57;6.93;;;3.50;;
23702;SDS011;12030;50.376;8.762;2022-08-25T05:43:25;5.93;;;3.27;;
23702;SDS011;12030;50.376;8.762;2022-08-25T05:45:53;3.50;;;3.20;;
23702;SDS011;12030;50.376;8.762;2022-08-25T05:48:23;4.00;;;3.33;;
23702;SDS011;12030;50.376;8.762;2022-08-25T05:50:53;7.10;;;3.43;;
23702;SDS011;12030;50.376;8.762;2022-08-25T05:53:20;3.53;;;2.70;;
23702;SDS011;12030;50.376;8.762;2022-08-25T05:55:46;3.57;;;2.93;;
23702;SDS011;12030;50.376;8.762;2022-08-25T05:58:13;5.07;;;2.90;;
23702;SDS011;12030;50.376;8.762;2022-08-25T06:00:39;6.33;;;2.93;;
23702;SDS011;12030;50.376;8.762;2022-08-25T06:03:05;3.67;;;3.03;;
23702;SDS011;12030;50.376;8.762;2022-08-25T06:05:31;4.33;;;3.27;;
23702;SDS011;12030;50.376;8.762;2022-08-25T06:07:57;3.67;;;3.13;;
23702;SDS011;12030;50.376;8.762;2022-08-25T06:10:23;6.90;;;3.13;;
23702;SDS011;12030;50.376;8.762;2022-08-25T06:12:49;4.73;;;3.23;;
23702;SDS011;12030;50.376;8.762;2022-08-25T06:15:19;4.80;;;3.10;;
23702;SDS011;12030;50.376;8.762;2022-08-25T06:17:47;5.23;;;3.17;;
23702;SDS011;12030;50.376;8.762;2022-08-25T06:20:15;6.57;;;3.47;;
23702;SDS011;12030;50.376;8.762;2022-08-25T06:22:43;4.00;;;3.33;;
23702;SDS011;12030;50.376;8.762;2022-08-25T06:25:09;5.37;;;3.20;;
23702;SDS011;12030;50.376;8.762;2022-08-25T06:27:37;7.20;;;3.17;;
23702;SDS011;12030;50.376;8.762;2022-08-25T06:30:03;4.67;;;3.30;;
23702;SDS011;12030;50.376;8.762;2022-08-25T06:32:31;5.10;;;3.37;;
23702;SDS011;12030;50.376;8.762;2022-08-25T06:35:02;5.23;;;3.20;;
23702;SDS011;12030;50.376;8.762;2022-08-25T06:37:28;4.30;;;3.00;;
23702;SDS011;12030;50.376;8.762;2022-08-25T06:39:53;4.47;;;3.03;;
23702;SDS011;12030;50.376;8.762;2022-08-25T06:42:19;3.30;;;3.00;;
23702;SDS011;12030;50.376;8.762;2022-08-25T06:44:45;4.03;;;3.17;;
23702;SDS011;12030;50.376;8.762;2022-08-25T06:47:10;5.50;;;3.40;;
23702;SDS011;12030;50.376;8.762;2022-08-25T06:49:36;5.40;;;3.13;;
23702;SDS011;12030;50.376;8.762;2022-08-25T06:52:02;4.17;;;3.13;;
23702;SDS011;12030;50.376;8.762;2022-08-25T06:54:28;5.40;;;3.40;;
23702;SDS011;12030;50.376;8.762;2022-08-25T06:56:54;5.17;;;3.53;;
23702;SDS011;12030;50.376;8.762;2022-08-25T06:59:19;6.27;;;3.70;;
23702;SDS011;12030;50.376;8.762;2022-08-25T07:01:45;6.93;;;3.77;;
23702;SDS011;12030;50.376;8.762;2022-08-25T07:04:11;5.27;;;3.30;;
23702;SDS011;12030;50.376;8.762;2022-08-25T07:06:36;4.57;;;3.27;;
23702;SDS011;12030;50.376;8.762;2022-08-25T07:09:03;4.30;;;3.47;;
23702;SDS011;12030;50.376;8.762;2022-08-25T07:11:30;7.23;;;3.40;;
23702;SDS011;12030;50.376;8.762;2022-08-25T07:13:58;5.97;;;4.10;;
23702;SDS011;12030;50.376;8.762;2022-08-25T07:16:24;4.07;;;3.67;;
23702;SDS011;12030;50.376;8.762;2022-08-25T07:18:50;6.57;;;3.27;;
23702;SDS011;12030;50.376;8.762;2022-08-25T07:21:20;5.00;;;3.80;;
23702;SDS011;12030;50.376;8.762;2022-08-25T07:23:46;4.97;;;3.70;;
23702;SDS011;12030;50.376;8.762;2022-08-25T07:26:13;8.03;;;3.73;;
23702;SDS011;12030;50.376;8.762;2022-08-25T07:28:41;4.70;;;3.77;;
23702;SDS011;12030;50.376;8.762;2022-08-25T07:31:08;5.50;;;3.67;;
23702;SDS011;12030;50.376;8.762;2022-08-25T07:33:34;5.70;;;4.60;;
23702;SDS011;12030;50.376;8.762;2022-08-25T07:35:59;8.27;;;4.60;;
23702;SDS011;12030;50.376;8.762;2022-08-25T07:38:25;5.87;;;4.43;;
23702;SDS011;12030;50.376;8.762;2022-08-25T07:40:51;6.23;;;4.97;;
23702;SDS011;12030;50.376;8.762;2022-08-25T07:43:19;7.80;;;5.00;;
23702;SDS011;12030;50.376;8.762;2022-08-25T07:45:45;5.53;;;4.90;;
23702;SDS011;12030;50.376;8.762;2022-08-25T07:48:11;8.47;;;5.00;;
23702;SDS011;12030;50.376;8.762;2022-08-25T07:50:39;5.87;;;5.00;;
23702;SDS011;12030;50.376;8.762;2022-08-25T07:53:07;6.40;;;4.97;;
23702;SDS011;12030;50.376;8.762;2022-08-25T07:55:33;7.70;;;4.87;;
23702;SDS011;12030;50.376;8.762;2022-08-25T07:58:02;8.43;;;5.20;;
23702;SDS011;12030;50.376;8.762;2022-08-25T08:00:29;5.23;;;4.73;;
23702;SDS011;12030;50.376;8.762;2022-08-25T08:02:57;6.57;;;5.13;;
23702;SDS011;12030;50.376;8.762;2022-08-25T08:05:27;8.13;;;4.63;;
23702;SDS011;12030;50.376;8.762;2022-08-25T08:07:53;6.40;;;5.03;;
23702;SDS011;12030;50.376;8.762;2022-08-25T08:10:19;6.57;;;4.83;;
23702;SDS011;12030;50.376;8.762;2022-08-25T08:12:45;6.47;;;4.80;;
23702;SDS011;12030;50.376;8.762;2022-08-25T08:15:11;6.87;;;4.87;;
23702;SDS011;12030;50.376;8.762;2022-08-25T08:17:37;6.27;;;4.70;;
23702;SDS011;12030;50.376;8.762;2022-08-25T08:20:04;6.37;;;4.97;;
23702;SDS011;12030;50.376;8.762;2022-08-25T08:22:33;6.50;;;5.13;;
23702;SDS011;12030;50.376;8.762;2022-08-25T08:24:59;7.93;;;4.90;;
23702;SDS011;12030;50.376;8.762;2022-08-25T08:27:25;4.97;;;4.47;;
23702;SDS011;12030;50.376;8.762;2022-08-25T08:29:51;6.87;;;4.33;;
23702;SDS011;12030;50.376;8.762;2022-08-25T08:32:17;9.10;;;4.93;;
23702;SDS011;12030;50.376;8.762;2022-08-25T08:34:44;8.63;;;5.43;;
23702;SDS011;12030;50.376;8.762;2022-08-25T08:37:10;5.53;;;5.00;;
23702;SDS011;12030;50.376;8.762;2022-08-25T08:39:36;5.47;;;4.90;;
23702;SDS011;12030;50.376;8.762;2022-08-25T08:42:04;7.00;;;5.23;;
23702;SDS011;12030;50.376;8.762;2022-08-25T08:52:53;9.17;;;5.37;;
23702;SDS011;12030;50.376;8.762;2022-08-25T08:55:52;10.97;;;6.50;;
23702;SDS011;12030;50.376;8.762;2022-08-25T08:58:20;7.17;;;4.80;;
23702;SDS011;12030;50.376;8.762;2022-08-25T09:00:51;8.00;;;5.50;;
23702;SDS011;12030;50.376;8.762;2022-08-25T09:03:39;8.00;;;5.77;;
23702;SDS011;12030;50.376;8.762;2022-08-25T09:06:08;9.23;;;4.70;;
23702;SDS011;12030;50.376;8.762;2022-08-25T09:08:37;7.80;;;5.40;;
23702;SDS011;12030;50.376;8.762;2022-08-25T09:16:54;8.50;;;5.63;;
23702;SDS011;12030;50.376;8.762;2022-08-25T09:19:28;7.13;;;5.00;;
23702;SDS011;12030;50.376;8.762;2022-08-25T09:28:12;5.33;;;4.67;;
23702;SDS011;12030;50.376;8.762;2022-08-25T09:30:37;5.93;;;5.10;;
23702;SDS011;12030;50.376;8.762;2022-08-25T09:33:05;8.10;;;4.87;;
23702;SDS011;12030;50.376;8.762;2022-08-25T09:35:32;6.40;;;5.60;;
23702;SDS011;12030;50.376;8.762;2022-08-25T09:38:06;6.07;;;4.73;;
23702;SDS011;12030;50.376;8.762;2022-08-25T09:40:36;7.07;;;5.23;;
23702;SDS011;12030;50.376;8.762;2022-08-25T09:43:17;10.43;;;5.23;;
23702;SDS011;12030;50.376;8.762;2022-08-25T09:45:49;6.63;;;4.67;;
23702;SDS011;12030;50.376;8.762;2022-08-25T09:50:50;7.30;;;5.63;;
23702;SDS011;12030;50.376;8.762;2022-08-25T09:53:18;5.97;;;5.17;;
23702;SDS011;12030;50.376;8.762;2022-08-25T09:55:46;7.13;;;5.20;;
23702;SDS011;12030;50.376;8.762;2022-08-25T09:58:21;5.70;;;5.00;;
23702;SDS011;12030;50.376;8.762;2022-08-25T10:01:02;5.40;;;4.25;;
23702;SDS011;12030;50.376;8.762;2022-08-25T10:03:28;5.05;;;3.92;;
23702;SDS011;12030;50.376;8.762;2022-08-25T10:10:56;4.70;;;4.30;;
23702;SDS011;12030;50.376;8.762;2022-08-25T10:13:34;5.78;;;4.45;;
23702;SDS011;12030;50.376;8.762;2022-08-25T10:16:07;6.30;;;4.60;;
23702;SDS011;12030;50.376;8.762;2022-08-25T10:18:36;4.50;;;3.90;;
23702;SDS011;12030;50.376;8.762;2022-08-25T10:21:06;6.28;;;4.60;;
23702;SDS011;12030;50.376;8.762;2022-08-25T10:23:38;4.15;;;3.75;;
23702;SDS011;12030;50.376;8.762;2022-08-25T10:26:12;4.83;;;3.77;;
23702;SDS011;12030;50.376;8.762;2022-08-25T10:29:01;4.87;;;3.83;;
23702;SDS011;12030;50.376;8.762;2022-08-25T10:31:48;7.05;;;4.65;;
23702;SDS011;12030;50.376;8.762;2022-08-25T10:34:47;6.45;;;4.15;;
23702;SDS011;12030;50.376;8.762;2022-08-25T10:37:21;6.93;;;4.57;;
23702;SDS011;12030;50.376;8.762;2022-08-25T10:40:08;7.40;;;5.40;;
23702;SDS011;12030;50.376;8.762;2022-08-25T10:43:10;4.75;;;4.25;;
23702;SDS011;12030;50.376;8.762;2022-08-25T10:48:55;5.17;;;4.53;;
23702;SDS011;12030;50.376;8.762;2022-08-25T10:54:44;6.85;;;4.22;;
23702;SDS011;12030;50.376;8.762;2022-08-25T10:57:21;6.90;;;4.43;;
23702;SDS011;12030;50.376;8.762;2022-08-25T11:00:03;4.78;;;4.20;;
23702;SDS011;12030;50.376;8.762;2022-08-25T11:05:37;5.80;;;4.55;;
23702;SDS011;12030;50.376;8.762;2022-08-25T11:08:05;7.22;;;4.47;;
23702;SDS011;12030;50.376;8.762;2022-08-25T11:10:46;4.90;;;4.40;;
23702;SDS011;12030;50.376;8.762;2022-08-25T11:16:11;5.00;;;4.17;;
23702;SDS011;12030;50.376;8.762;2022-08-25T11:19:25;4.78;;;3.92;;
23702;SDS011;12030;50.376;8.762;2022-08-25T11:21:46;6.38;;;3.90;;
23702;SDS011;12030;50.376;8.762;2022-08-25T11:24:35;7.03;;;4.70;;
23702;SDS011;12030;50.376;8.762;2022-08-25T11:27:22;6.70;;;4.18;;
23702;SDS011;12030;50.376;8.762;2022-08-25T11:29:57;5.10;;;4.45;;
23702;SDS011;12030;50.376;8.762;2022-08-25T11:32:27;7.75;;;4.43;;
23702;SDS011;12030;50.376;8.762;2022-08-25T11:34:58;5.28;;;4.22;;
23702;SDS011;12030;50.376;8.762;2022-08-25T11:37:26;4.95;;;4.45;;
23702;SDS011;12030;50.376;8.762;2022-08-25T11:43:25;5.95;;;4.28;;
23702;SDS011;12030;50.376;8.762;2022-08-25T11:51:57;4.53;;;3.55;;
23702;SDS011;12030;50.376;8.762;2022-08-25T11:54:26;4.50;;;3.90;;
23702;SDS011;12030;50.376;8.762;2022-08-25T11:56:59;4.50;;;3.92;;
23702;SDS011;12030;50.376;8.762;2022-08-25T12:04:54;5.22;;;3.55;;
23702;SDS011;12030;50.376;8.762;2022-08-25T12:07:24;5.30;;;3.40;;
23702;SDS011;12030;50.376;8.762;2022-08-25T12:15:11;5.70;;;3.63;;
23702;SDS011;12030;50.376;8.762;2022-08-25T12:21:27;4.95;;;3.80;;
23702;SDS011;12030;50.376;8.762;2022-08-25T12:23:39;5.43;;;3.85;;
23702;SDS011;12030;50.376;8.762;2022-08-25T12:26:16;4.97;;;3.77;;
23702;SDS011;12030;50.376;8.762;2022-08-25T12:34:36;4.30;;;3.30;;
23702;SDS011;12030;50.376;8.762;2022-08-25T12:37:24;5.13;;;3.42;;
23702;SDS011;12030;50.376;8.762;2022-08-25T12:42:35;3.70;;;3.20;;
23702;SDS011;12030;50.376;8.762;2022-08-25T12:45:42;4.43;;;3.40;;
23702;SDS011;12030;50.376;8.762;2022-08-25T12:51:05;4.15;;;3.50;;
23702;SDS011;12030;50.376;8.762;2022-08-25T12:53:38;5.57;;;3.28;;
23702;SDS011;12030;50.376;8.762;2022-08-25T12:56:27;4.50;;;3.45;;
23702;SDS011;12030;50.376;8.762;2022-08-25T12:59:11;5.13;;;3.43;;
23702;SDS011;12030;50.376;8.762;2022-08-25T13:01:52;4.37;;;3.43;;
23702;SDS011;12030;50.376;8.762;2022-08-25T13:10:14;4.95;;;3.65;;
23702;SDS011;12030;50.376;8.762;2022-08-25T13:12:54;4.18;;;3.42;;
23702;SDS011;12030;50.376;8.762;2022-08-25T13:15:27;3.95;;;3.53;;
23702;SDS011;12030;50.376;8.762;2022-08-25T13:18:12;3.90;;;3.35;;
23702;SDS011;12030;50.376;8.762;2022-08-25T13:20:39;3.95;;;3.40;;
23702;SDS011;12030;50.376;8.762;2022-08-25T13:23:04;4.18;;;2.97;;
23702;SDS011;12030;50.376;8.762;2022-08-25T13:25:30;3.33;;;2.92;;
23702;SDS011;12030;50.376;8.762;2022-08-25T13:28:00;3.28;;;2.97;;
23702;SDS011;12030;50.376;8.762;2022-08-25T13:30:29;5.07;;;2.95;;
23702;SDS011;12030;50.376;8.762;2022-08-25T13:32:57;5.75;;;3.20;;
23702;SDS011;12030;50.376;8.762;2022-08-25T13:37:50;5.25;;;3.20;;
23702;SDS011;12030;50.376;8.762;2022-08-25T13:40:22;4.45;;;3.25;;
23702;SDS011;12030;50.376;8.762;2022-08-25T13:42:51;4.07;;;3.08;;
23702;SDS011;12030;50.376;8.762;2022-08-25T13:45:20;3.85;;;3.22;;
23702;SDS011;12030;50.376;8.762;2022-08-25T13:47:52;4.50;;;3.30;;
23702;SDS011;12030;50.376;8.762;2022-08-25T13:52:59;5.43;;;3.00;;
23702;SDS011;12030;50.376;8.762;2022-08-25T13:55:33;3.40;;;3.00;;
23702;SDS011;12030;50.376;8.762;2022-08-25T13:58:11;3.97;;;2.78;;
23702;SDS011;12030;50.376;8.762;2022-08-25T14:00:44;4.22;;;2.75;;
23702;SDS011;12030;50.376;8.762;2022-08-25T14:03:29;5.28;;;2.83;;
23702;SDS011;12030;50.376;8.762;2022-08-25T14:08:41;3.13;;;2.70;;
23702;SDS011;12030;50.376;8.762;2022-08-25T14:11:30;4.68;;;2.72;;
23702;SDS011;12030;50.376;8.762;2022-08-25T14:14:05;5.00;;;2.70;;
23702;SDS011;12030;50.376;8.762;2022-08-25T14:16:37;6.15;;;3.15;;
23702;SDS011;12030;50.376;8.762;2022-08-25T14:19:04;3.38;;;2.95;;
23702;SDS011;12030;50.376;8.762;2022-08-25T14:21:36;4.13;;;2.70;;
23702;SDS011;12030;50.376;8.762;2022-08-25T14:24:01;3.40;;;2.80;;
23702;SDS011;12030;50.376;8.762;2022-08-25T14:26:27;3.73;;;2.83;;
23702;SDS011;12030;50.376;8.762;2022-08-25T14:28:53;6.83;;;2.80;;
23702;SDS011;12030;50.376;8.762;2022-08-25T14:33:53;3.53;;;3.00;;
23702;SDS011;12030;50.376;8.762;2022-08-25T14:36:22;5.30;;;3.22;;
23702;SDS011;12030;50.376;8.762;2022-08-25T14:38:47;5.07;;;3.00;;
23702;SDS011;12030;50.376;8.762;2022-08-25T14:41:13;11.50;;;3.57;;
23702;SDS011;12030;50.376;8.762;2022-08-25T14:43:39;4.82;;;2.85;;
23702;SDS011;12030;50.376;8.762;2022-08-25T14:46:13;4.03;;;2.72;;
23702;SDS011;12030;50.376;8.762;2022-08-25T14:48:45;3.63;;;3.10;;
23702;SDS011;12030;50.376;8.762;2022-08-25T14:51:16;3.28;;;2.92;;
23702;SDS011;12030;50.376;8.762;2022-08-25T14:53:42;4.30;;;3.10;;
23702;SDS011;12030;50.376;8.762;2022-08-25T14:56:07;4.72;;;3.05;;
23702;SDS011;12030;50.376;8.762;2022-08-25T14:58:33;3.53;;;3.10;;
23702;SDS011;12030;50.376;8.762;2022-08-25T15:00:59;3.08;;;2.78;;
23702;SDS011;12030;50.376;8.762;2022-08-25T15:03:29;5.07;;;3.00;;
23702;SDS011;12030;50.376;8.762;2022-08-25T15:05:58;3.40;;;2.90;;
23702;SDS011;12030;50.376;8.762;2022-08-25T15:08:25;3.83;;;2.95;;
23702;SDS011;12030;50.376;8.762;2022-08-25T15:11:09;3.20;;;2.90;;
23702;SDS011;12030;50.376;8.762;2022-08-25T15:13:34;3.97;;;3.10;;
23702;SDS011;12030;50.376;8.762;2022-08-25T15:16:00;5.22;;;3.10;;
23702;SDS011;12030;50.376;8.762;2022-08-25T15:18:26;3.80;;;3.30;;
23702;SDS011;12030;50.376;8.762;2022-08-25T15:20:52;4.28;;;3.28;;
23702;SDS011;12030;50.376;8.762;2022-08-25T15:23:17;3.80;;;3.23;;
23702;SDS011;12030;50.376;8.762;2022-08-25T15:25:44;6.87;;;3.47;;
23702;SDS011;12030;50.376;8.762;2022-08-25T15:28:11;4.63;;;3.10;;
23702;SDS011;12030;50.376;8.762;2022-08-25T15:30:37;3.97;;;3.00;;
23702;SDS011;12030;50.376;8.762;2022-08-25T15:33:03;3.77;;;3.43;;
23702;SDS011;12030;50.376;8.762;2022-08-25T15:35:29;6.23;;;3.40;;
23702;SDS011;12030;50.376;8.762;2022-08-25T15:37:54;3.90;;;3.07;;
23702;SDS011;12030;50.376;8.762;2022-08-25T15:40:20;4.78;;;3.50;;
23702;SDS011;12030;50.376;8.762;2022-08-25T15:42:46;4.88;;;3.10;;
23702;SDS011;12030;50.376;8.762;2022-08-25T15:45:11;4.47;;;3.30;;
23702;SDS011;12030;50.376;8.762;2022-08-25T15:47:38;3.78;;;3.33;;
23702;SDS011;12030;50.376;8.762;2022-08-25T15:50:05;5.05;;;3.17;;
23702;SDS011;12030;50.376;8.762;2022-08-25T15:52:39;4.80;;;3.10;;
23702;SDS011;12030;50.376;8.762;2022-08-25T15:55:05;3.60;;;2.97;;
23702;SDS011;12030;50.376;8.762;2022-08-25T15:57:31;4.35;;;3.30;;
23702;SDS011;12030;50.376;8.762;2022-08-25T15:59:57;3.38;;;3.08;;
23702;SDS011;12030;50.376;8.762;2022-08-25T16:02:23;3.97;;;3.20;;
23702;SDS011;12030;50.376;8.762;2022-08-25T16:04:49;4.93;;;3.00;;
23702;SDS011;12030;50.376;8.762;2022-08-25T16:07:17;4.35;;;2.97;;
23702;SDS011;12030;50.376;8.762;2022-08-25T16:09:43;4.47;;;3.20;;
23702;SDS011;12030;50.376;8.762;2022-08-25T16:12:08;5.10;;;2.80;;
23702;SDS011;12030;50.376;8.762;2022-08-25T16:14:34;3.58;;;3.10;;
23702;SDS011;12030;50.376;8.762;2022-08-25T16:17:01;4.88;;;3.00;;
23702;SDS011;12030;50.376;8.762;2022-08-25T16:19:27;5.10;;;2.77;;
23702;SDS011;12030;50.376;8.762;2022-08-25T16:21:53;3.58;;;2.90;;
23702;SDS011;12030;50.376;8.762;2022-08-25T16:24:18;4.22;;;2.90;;
23702;SDS011;12030;50.376;8.762;2022-08-25T16:26:44;4.28;;;2.83;;
23702;SDS011;12030;50.376;8.762;2022-08-25T16:29:11;4.60;;;3.00;;
23702;SDS011;12030;50.376;8.762;2022-08-25T16:31:38;4.77;;;3.30;;
23702;SDS011;12030;50.376;8.762;2022-08-25T16:34:04;4.03;;;3.00;;